Thunder radar more information blitzortung!


Radar de pluja more information rain snow radar


Visita la nostra xarxa de llocs de meteo:

Template documentation
and downloads

And another site



No particular awareness of the weather is required.    There are no Weather-warnings

Pagina Historial Weather Underground text

Diari Resum Juliol 21, 2017 Unitats:  Tant    Imperial   Mètric
« Previous Dia
SegĂźent Dia »
Diari Setmana Mensual Anual Personalitzada
  Maxima: Minima: Media:
Temperatura: 83.1 °F /  28.4 °C 67.5 °F /  19.7 °C 75.4 °F /  24.1 °C
Punt de rosada: 65.3 °F /  18.5 °C 59.4 °F /  15.2 °C 62.6 °F /  17 °C
Humitat: 86 % 51 % 65 %
Wind Speed: 9.2 mph /  14.8 km/h - 2.4 mph /  3.9 km/h
RĂ fegues de vent: 9.2 mph /  14.8 km/h - -
Vent:- - SSE
Pression baro: 29.9 in /  1011.7 hPa 29.7 in /  1007.0 hPa -
Precipitacions: 0.04 in /  1.0 mm    
Historical Graphs
 
 
Dades de taula per Juliol 21, 2017
Temps Temperatura Punt de rosada Pression baro Vent Wind Speed RĂ fegues de vent Humitat Rainfall Rate (Hourly)
00:00 73.8 °F /  23.2 °C 60.8 °F /  16.0 °C 29.8 in /  1010.7 hPa ENE 1.4 mph /  2.3 km/h 1.4 mph /  2.3 km/h 64 % 0 in /  0.0 mm
00:05 69.4 °F /  20.8 °C 59.5 °F /  15.3 °C 29.8 in /  1010.0 hPa WNW 1 mph /  1.6 km/h 2 mph /  3.2 km/h 71 % 0 in /  0.0 mm
00:15 69.4 °F /  20.8 °C 60.1 °F /  15.6 °C 29.8 in /  1010.0 hPa Calm     72 % 0 in /  0.0 mm
00:25 69.3 °F /  20.7 °C 59.7 °F /  15.4 °C 29.8 in /  1010.0 hPa WSW 1 mph /  1.6 km/h 2 mph /  3.2 km/h 72 % 0 in /  0.0 mm
00:35 69.1 °F /  20.6 °C 59.7 °F /  15.4 °C 29.8 in /  1010.0 hPa West 1 mph /  1.6 km/h 2 mph /  3.2 km/h 72 % 0 in /  0.0 mm
00:45 68.7 °F /  20.4 °C 59.4 °F /  15.2 °C 29.8 in /  1010.0 hPa West 1 mph /  1.6 km/h 1 mph /  1.6 km/h 72 % 0 in /  0.0 mm
00:55 68.7 °F /  20.4 °C 59.7 °F /  15.4 °C 29.8 in /  1010.0 hPa Calm   2 mph /  3.2 km/h 73 % 0 in /  0.0 mm
01:05 68.7 °F /  20.4 °C 59.7 °F /  15.4 °C 29.8 in /  1010.0 hPa Calm     73 % 0 in /  0.0 mm
01:15 69.1 °F /  20.6 °C 60.1 °F /  15.6 °C 29.8 in /  1010.0 hPa WSW 1 mph /  1.6 km/h 1 mph /  1.6 km/h 73 % 0 in /  0.0 mm
01:25 69.1 °F /  20.6 °C 60.1 °F /  15.6 °C 29.8 in /  1010.0 hPa West 1 mph /  1.6 km/h 2 mph /  3.2 km/h 73 % 0 in /  0.0 mm
01:35 69.1 °F /  20.6 °C 60.1 °F /  15.6 °C 29.8 in /  1010.0 hPa Calm   2 mph /  3.2 km/h 73 % 0 in /  0.0 mm
01:45 68.9 °F /  20.5 °C 59.9 °F /  15.5 °C 29.8 in /  1010.0 hPa Calm     73 % 0 in /  0.0 mm
01:55 68.7 °F /  20.4 °C 59.7 °F /  15.4 °C 29.8 in /  1010.0 hPa Calm   1 mph /  1.6 km/h 73 % 0 in /  0.0 mm
02:05 68.7 °F /  20.4 °C 59.7 °F /  15.4 °C 29.8 in /  1010.0 hPa NE 1 mph /  1.6 km/h 2 mph /  3.2 km/h 73 % 0 in /  0.0 mm
02:15 68.9 °F /  20.5 °C 59.9 °F /  15.5 °C 29.8 in /  1010.0 hPa Calm   3 mph /  4.8 km/h 73 % 0 in /  0.0 mm
02:25 68.7 °F /  20.4 °C 59.4 °F /  15.2 °C 29.8 in /  1010.0 hPa NE 2 mph /  3.2 km/h 2 mph /  3.2 km/h 72 % 0 in /  0.0 mm
02:35 68.7 °F /  20.4 °C 59.7 °F /  15.4 °C 29.8 in /  1010.0 hPa West 1 mph /  1.6 km/h 1 mph /  1.6 km/h 73 % 0 in /  0.0 mm
02:45 69.1 °F /  20.6 °C 60.1 °F /  15.6 °C 29.8 in /  1010.0 hPa Calm   2 mph /  3.2 km/h 73 % 0 in /  0.0 mm
02:55 70.2 °F /  21.2 °C 61.2 °F /  16.2 °C 29.8 in /  1010.0 hPa Calm   2 mph /  3.2 km/h 73 % 0 in /  0.0 mm
03:05 70.3 °F /  21.3 °C 61 °F /  16.1 °C 29.8 in /  1010.0 hPa SW 1 mph /  1.6 km/h 2 mph /  3.2 km/h 72 % 0 in /  0.0 mm
03:15 71.1 °F /  21.7 °C 61.2 °F /  16.2 °C 29.8 in /  1010.0 hPa SW 1 mph /  1.6 km/h 2 mph /  3.2 km/h 71 % 0 in /  0.0 mm
03:25 72.5 °F /  22.5 °C 61.7 °F /  16.5 °C 29.8 in /  1010.0 hPa SW 1 mph /  1.6 km/h 2 mph /  3.2 km/h 69 % 0 in /  0.0 mm
03:35 73 °F /  22.8 °C 62.2 °F /  16.8 °C 29.8 in /  1010.0 hPa Calm   2 mph /  3.2 km/h 69 % 0 in /  0.0 mm
03:45 73.4 °F /  23.0 °C 61.9 °F /  16.6 °C 29.8 in /  1010.0 hPa SSW 1 mph /  1.6 km/h 2 mph /  3.2 km/h 67 % 0 in /  0.0 mm
03:55 73.8 °F /  23.2 °C 62.1 °F /  16.7 °C 29.8 in /  1010.0 hPa SSW 1 mph /  1.6 km/h 3 mph /  4.8 km/h 67 % 0 in /  0.0 mm
04:05 74.5 °F /  23.6 °C 62.4 °F /  16.9 °C 29.8 in /  1010.0 hPa Calm   1 mph /  1.6 km/h 66 % 0 in /  0.0 mm
04:15 75.4 °F /  24.1 °C 62.4 °F /  16.9 °C 29.8 in /  1009.0 hPa SW 2 mph /  3.2 km/h 2 mph /  3.2 km/h 64 % 0 in /  0.0 mm
04:25 75 °F /  23.9 °C 62.4 °F /  16.9 °C 29.8 in /  1010.7 hPa SSW 1 mph /  1.6 km/h 3 mph /  4.8 km/h 65 % 0 in /  0.0 mm
04:35 75.9 °F /  24.4 °C 62.4 °F /  16.9 °C 29.8 in /  1010.7 hPa SSE 3 mph /  4.8 km/h 3 mph /  4.8 km/h 63 % 0 in /  0.0 mm
04:45 76.5 °F /  24.7 °C 63 °F /  17.2 °C 29.8 in /  1009.0 hPa Calm   3 mph /  4.8 km/h 63 % 0 in /  0.0 mm
04:55 75.7 °F /  24.3 °C 62.2 °F /  16.8 °C 29.8 in /  1010.0 hPa SW 1 mph /  1.6 km/h 4 mph /  6.4 km/h 63 % 0 in /  0.0 mm
05:05 75.9 °F /  24.4 °C 62.1 °F /  16.7 °C 29.8 in /  1010.0 hPa SW 1 mph /  1.6 km/h 3 mph /  4.8 km/h 62 % 0 in /  0.0 mm
05:15 76.3 °F /  24.6 °C 62.2 °F /  16.8 °C 29.8 in /  1010.0 hPa SW 1 mph /  1.6 km/h 2 mph /  3.2 km/h 62 % 0 in /  0.0 mm
05:25 77 °F /  25.0 °C 62.1 °F /  16.7 °C 29.8 in /  1010.7 hPa SW 1 mph /  1.6 km/h 4 mph /  6.4 km/h 60 % 0 in /  0.0 mm
05:35 78.8 °F /  26.0 °C 63.3 °F /  17.4 °C 29.8 in /  1010.7 hPa WSW 2 mph /  3.2 km/h 3 mph /  4.8 km/h 59 % 0 in /  0.0 mm
10:35 78.8 °F /  26.0 °C 63.3 °F /  17.4 °C 29.8 in /  1010.0 hPa NNE 6.2 mph /  10.0 km/h 6.2 mph /  10.0 km/h 59 % 0 in /  0.0 mm
10:40 79.3 °F /  26.3 °C 63.3 °F /  17.4 °C 29.8 in /  1010.0 hPa North 2.3 mph /  3.7 km/h 2.3 mph /  3.7 km/h 58 % 0 in /  0.0 mm
10:45 79.2 °F /  26.2 °C 63.1 °F /  17.3 °C 29.8 in /  1010.0 hPa NNW 3.5 mph /  5.6 km/h 3.5 mph /  5.6 km/h 58 % 0 in /  0.0 mm
10:51 78.6 °F /  25.9 °C 62.6 °F /  17.0 °C 29.8 in /  1010.0 hPa NE 3.6 mph /  5.8 km/h 3.6 mph /  5.8 km/h 58 % 0 in /  0.0 mm
10:56 78.4 °F /  25.8 °C 61.9 °F /  16.6 °C 29.8 in /  1010.0 hPa NNE 5.8 mph /  9.3 km/h 5.8 mph /  9.3 km/h 57 % 0 in /  0.0 mm
11:01 78.1 °F /  25.6 °C 61.2 °F /  16.2 °C 29.8 in /  1010.0 hPa ENE 5.8 mph /  9.3 km/h 5.8 mph /  9.3 km/h 56 % 0 in /  0.0 mm
11:04 78.3 °F /  25.7 °C 61.9 °F /  16.6 °C 29.8 in /  1010.0 hPa ENE 4.6 mph /  7.4 km/h 4.6 mph /  7.4 km/h 57 % 0 in /  0.0 mm
11:09 78.3 °F /  25.7 °C 61.3 °F /  16.3 °C 29.8 in /  1010.0 hPa NNE 5.8 mph /  9.3 km/h 5.8 mph /  9.3 km/h 56 % 0 in /  0.0 mm
11:14 78.1 °F /  25.6 °C 61.2 °F /  16.2 °C 29.8 in /  1010.0 hPa NE 5.4 mph /  8.7 km/h 5.4 mph /  8.7 km/h 56 % 0 in /  0.0 mm
11:19 78.4 °F /  25.8 °C 61.9 °F /  16.6 °C 29.8 in /  1010.0 hPa NE 4.6 mph /  7.4 km/h 4.6 mph /  7.4 km/h 57 % 0 in /  0.0 mm
11:24 78.4 °F /  25.8 °C 61.3 °F /  16.3 °C 29.8 in /  1009.0 hPa NNE 6.9 mph /  11.1 km/h 6.9 mph /  11.1 km/h 56 % 0 in /  0.0 mm
11:29 78.8 °F /  26.0 °C 61.3 °F /  16.3 °C 29.8 in /  1009.0 hPa NNE 9.2 mph /  14.8 km/h 9.2 mph /  14.8 km/h 55 % 0 in /  0.0 mm
11:34 79.3 °F /  26.3 °C 61.9 °F /  16.6 °C 29.8 in /  1009.0 hPa NNE 5.6 mph /  9.0 km/h 5.6 mph /  9.0 km/h 55 % 0 in /  0.0 mm
11:39 79 °F /  26.1 °C 61 °F /  16.1 °C 29.8 in /  1009.0 hPa NNW 9.2 mph /  14.8 km/h 9.2 mph /  14.8 km/h 54 % 0 in /  0.0 mm
11:49 79.7 °F /  26.5 °C 61.5 °F /  16.4 °C 29.8 in /  1009.0 hPa ESE 4.3 mph /  6.9 km/h 4.3 mph /  6.9 km/h 54 % 0 in /  0.0 mm
11:54 79.7 °F /  26.5 °C 61.5 °F /  16.4 °C 29.8 in /  1009.0 hPa NNE 4.6 mph /  7.4 km/h 4.6 mph /  7.4 km/h 54 % 0 in /  0.0 mm
11:59 79.2 °F /  26.2 °C 60.6 °F /  15.9 °C 29.8 in /  1009.0 hPa NNE 7.6 mph /  12.2 km/h 7.6 mph /  12.2 km/h 53 % 0 in /  0.0 mm
12:04 78.3 °F /  25.7 °C 60.3 °F /  15.7 °C 29.8 in /  1009.0 hPa ENE 8.1 mph /  13.0 km/h 8.1 mph /  13.0 km/h 54 % 0 in /  0.0 mm
12:09 78.1 °F /  25.6 °C 60.1 °F /  15.6 °C 29.8 in /  1010.0 hPa East 6.9 mph /  11.1 km/h 6.9 mph /  11.1 km/h 54 % 0 in /  0.0 mm
12:14 77.9 °F /  25.5 °C 59.9 °F /  15.5 °C 29.8 in /  1010.0 hPa ENE 2.6 mph /  4.2 km/h 2.6 mph /  4.2 km/h 54 % 0 in /  0.0 mm
12:19 77.5 °F /  25.3 °C 60.1 °F /  15.6 °C 29.8 in /  1010.0 hPa NNE 4.9 mph /  7.9 km/h 4.9 mph /  7.9 km/h 55 % 0 in /  0.0 mm
12:25 76.5 °F /  24.7 °C 61.2 °F /  16.2 °C 29.8 in /  1009.0 hPa North 2 mph /  3.2 km/h 7 mph /  11.3 km/h 59 % 0 in /  0.0 mm
12:30 75.4 °F /  24.1 °C 61 °F /  16.1 °C 29.8 in /  1009.0 hPa NNW 2 mph /  3.2 km/h 7 mph /  11.3 km/h 61 % 0 in /  0.0 mm
12:35 73.9 °F /  23.3 °C 61 °F /  16.1 °C 29.8 in /  1009.0 hPa NE 4.6 mph /  7.4 km/h 4.6 mph /  7.4 km/h 64 % 0 in /  0.0 mm
12:40 72.9 °F /  22.7 °C 60.4 °F /  15.8 °C 29.8 in /  1010.7 hPa NNE 5 mph /  8.0 km/h 7 mph /  11.3 km/h 65 % 0 in /  0.0 mm
12:45 72.7 °F /  22.6 °C 60.6 °F /  15.9 °C 29.8 in /  1010.7 hPa NNW 2.2 mph /  3.5 km/h 2.2 mph /  3.5 km/h 66 % 0 in /  0.0 mm
12:50 72.3 °F /  22.4 °C 61.2 °F /  16.2 °C 29.8 in /  1010.7 hPa East 2.3 mph /  3.7 km/h 2.3 mph /  3.7 km/h 68 % 0 in /  0.0 mm
12:55 71.8 °F /  22.1 °C 60.6 °F /  15.9 °C 29.8 in /  1010.0 hPa NNE 1 mph /  1.6 km/h 4 mph /  6.4 km/h 68 % 0 in /  0.0 mm
13:00 71.6 °F /  22.0 °C 61 °F /  16.1 °C 29.8 in /  1010.0 hPa NNE 3 mph /  4.8 km/h 5 mph /  8.0 km/h 69 % 0 in /  0.0 mm
13:05 71.1 °F /  21.7 °C 61.2 °F /  16.2 °C 29.8 in /  1010.0 hPa NNE 1 mph /  1.6 km/h 4 mph /  6.4 km/h 71 % 0 in /  0.0 mm
13:10 71.1 °F /  21.7 °C 62.1 °F /  16.7 °C 29.8 in /  1010.0 hPa NNE 2 mph /  3.2 km/h 3 mph /  4.8 km/h 73 % 0 in /  0.0 mm
13:15 71.1 °F /  21.7 °C 62.1 °F /  16.7 °C 29.8 in /  1010.0 hPa ENE 2.3 mph /  3.7 km/h 2.3 mph /  3.7 km/h 73 % 0 in /  0.0 mm
13:20 70.9 °F /  21.6 °C 62.2 °F /  16.8 °C 29.8 in /  1010.0 hPa WNW 2.3 mph /  3.7 km/h 2.3 mph /  3.7 km/h 74 % 0 in /  0.0 mm
13:25 71.1 °F /  21.7 °C 62.8 °F /  17.1 °C 29.8 in /  1010.0 hPa West 2.3 mph /  3.7 km/h 2.3 mph /  3.7 km/h 75 % 0 in /  0.0 mm
13:26 71.1 °F /  21.7 °C 62.8 °F /  17.1 °C 29.8 in /  1010.0 hPa SW 2.3 mph /  3.7 km/h 2.3 mph /  3.7 km/h 75 % 0 in /  0.0 mm
13:31 71.2 °F /  21.8 °C 63.7 °F /  17.6 °C 29.8 in /  1010.0 hPa SSW 2.3 mph /  3.7 km/h 2.3 mph /  3.7 km/h 77 % 0 in /  0.0 mm
13:36 70.7 °F /  21.5 °C 63.1 °F /  17.3 °C 29.8 in /  1010.7 hPa SE 1.2 mph /  1.9 km/h 1.2 mph /  1.9 km/h 77 % 0 in /  0.0 mm
13:41 71.1 °F /  21.7 °C 63.5 °F /  17.5 °C 29.8 in /  1010.7 hPa East 2.3 mph /  3.7 km/h 2.3 mph /  3.7 km/h 77 % 0 in /  0.0 mm
13:46 71.1 °F /  21.7 °C 63.1 °F /  17.3 °C 29.8 in /  1010.7 hPa WSW 2.4 mph /  3.9 km/h 2.4 mph /  3.9 km/h 76 % 0.04 in /  1.0 mm
13:51 71.2 °F /  21.8 °C 64.4 °F /  18.0 °C 29.8 in /  1010.0 hPa SSE 1.2 mph /  1.9 km/h   79 % 0.04 in /  1.0 mm
13:56 71.2 °F /  21.8 °C 64 °F /  17.8 °C 29.8 in /  1010.0 hPa NNE 1.6 mph /  2.6 km/h   78 % 0.04 in /  1.0 mm
14:01 71.1 °F /  21.7 °C 63.5 °F /  17.5 °C 29.8 in /  1010.0 hPa NNE 1.2 mph /  1.9 km/h   77 % 0.04 in /  1.0 mm
14:06 71.2 °F /  21.8 °C 63.3 °F /  17.4 °C 29.8 in /  1010.0 hPa NW 2.4 mph /  3.9 km/h 2.4 mph /  3.9 km/h 76 % 0.04 in /  1.0 mm
14:11 71.8 °F /  22.1 °C 64.2 °F /  17.9 °C 29.8 in /  1010.0 hPa East 3.5 mph /  5.6 km/h 3.5 mph /  5.6 km/h 77 % 0.04 in /  1.0 mm
14:16 71.6 °F /  22.0 °C 64 °F /  17.8 °C 29.8 in /  1010.0 hPa NNE 1.2 mph /  1.9 km/h   77 % 0.04 in /  1.0 mm
14:21 71.8 °F /  22.1 °C 63.9 °F /  17.7 °C 29.8 in /  1010.0 hPa NNE 3.5 mph /  5.6 km/h 3.5 mph /  5.6 km/h 76 % 0.04 in /  1.0 mm
14:26 72.1 °F /  22.3 °C 64.2 °F /  17.9 °C 29.8 in /  1010.0 hPa NW 3.3 mph /  5.3 km/h 3.3 mph /  5.3 km/h 76 % 0.04 in /  1.0 mm
14:31 72.1 °F /  22.3 °C 63.9 °F /  17.7 °C 29.8 in /  1010.0 hPa South 3.5 mph /  5.6 km/h 3.5 mph /  5.6 km/h 75 % 0.04 in /  1.0 mm
14:36 72.5 °F /  22.5 °C 64.6 °F /  18.1 °C 29.8 in /  1010.0 hPa NE 2.3 mph /  3.7 km/h 2.3 mph /  3.7 km/h 76 % 0.04 in /  1.0 mm
14:41 72.5 °F /  22.5 °C 64 °F /  17.8 °C 29.8 in /  1010.0 hPa NNE 3.5 mph /  5.6 km/h 3.5 mph /  5.6 km/h 75 % 0.04 in /  1.0 mm
14:46 72.5 °F /  22.5 °C 64 °F /  17.8 °C 29.8 in /  1010.0 hPa ENE 3.5 mph /  5.6 km/h 3.5 mph /  5.6 km/h 75 % 0 in /  0.0 mm
14:51 72.7 °F /  22.6 °C 64.2 °F /  17.9 °C 29.8 in /  1009.0 hPa ENE 3.5 mph /  5.6 km/h 3.5 mph /  5.6 km/h 75 % 0 in /  0.0 mm
14:56 72.7 °F /  22.6 °C 64.2 °F /  17.9 °C 29.8 in /  1009.0 hPa NNE 3.6 mph /  5.8 km/h 3.6 mph /  5.8 km/h 75 % 0 in /  0.0 mm
15:02 73.2 °F /  22.9 °C 64.8 °F /  18.2 °C 29.8 in /  1009.0 hPa ENE 2.3 mph /  3.7 km/h 2.3 mph /  3.7 km/h 75 % 0 in /  0.0 mm
15:07 73.8 °F /  23.2 °C 64.9 °F /  18.3 °C 29.8 in /  1010.0 hPa NNE 2.4 mph /  3.9 km/h 2.4 mph /  3.9 km/h 74 % 0 in /  0.0 mm
15:12 73.8 °F /  23.2 °C 64.6 °F /  18.1 °C 29.8 in /  1010.0 hPa ENE 4.6 mph /  7.4 km/h 4.6 mph /  7.4 km/h 73 % 0 in /  0.0 mm
15:17 74.5 °F /  23.6 °C 64.9 °F /  18.3 °C 29.8 in /  1010.0 hPa ENE 4.6 mph /  7.4 km/h 4.6 mph /  7.4 km/h 72 % 0 in /  0.0 mm
15:22 75.4 °F /  24.1 °C 65.3 °F /  18.5 °C 29.8 in /  1010.0 hPa ESE 2.3 mph /  3.7 km/h 2.3 mph /  3.7 km/h 71 % 0 in /  0.0 mm
15:27 76.1 °F /  24.5 °C 65.1 °F /  18.4 °C 29.8 in /  1010.0 hPa NNE 3.5 mph /  5.6 km/h 3.5 mph /  5.6 km/h 69 % 0 in /  0.0 mm
15:32 75.7 °F /  24.3 °C 64.4 °F /  18.0 °C 29.8 in /  1010.0 hPa ENE 4.6 mph /  7.4 km/h 4.6 mph /  7.4 km/h 68 % 0 in /  0.0 mm
15:38 75.7 °F /  24.3 °C 64 °F /  17.8 °C 29.8 in /  1009.0 hPa NNE 3.5 mph /  5.6 km/h 3.5 mph /  5.6 km/h 67 % 0 in /  0.0 mm
15:43 75.9 °F /  24.4 °C 64.2 °F /  17.9 °C 29.8 in /  1009.0 hPa NNE 3.5 mph /  5.6 km/h 3.5 mph /  5.6 km/h 67 % 0 in /  0.0 mm
15:48 76.3 °F /  24.6 °C 64.6 °F /  18.1 °C 29.8 in /  1009.0 hPa NE 3.5 mph /  5.6 km/h 3.5 mph /  5.6 km/h 67 % 0 in /  0.0 mm
15:53 77 °F /  25.0 °C 64.2 °F /  17.9 °C 29.8 in /  1010.0 hPa ENE 3.5 mph /  5.6 km/h 3.5 mph /  5.6 km/h 65 % 0 in /  0.0 mm
15:58 77.7 °F /  25.4 °C 64.9 °F /  18.3 °C 29.8 in /  1010.0 hPa NNE 4.6 mph /  7.4 km/h 4.6 mph /  7.4 km/h 65 % 0 in /  0.0 mm
16:03 78.1 °F /  25.6 °C 64.6 °F /  18.1 °C 29.8 in /  1010.0 hPa ENE 3.5 mph /  5.6 km/h 3.5 mph /  5.6 km/h 63 % 0 in /  0.0 mm
16:08 78.1 °F /  25.6 °C 64.6 °F /  18.1 °C 29.8 in /  1010.0 hPa ENE 3.5 mph /  5.6 km/h 3.5 mph /  5.6 km/h 63 % 0 in /  0.0 mm
16:13 78.8 °F /  26.0 °C 64.8 °F /  18.2 °C 29.8 in /  1010.7 hPa North 2.3 mph /  3.7 km/h 2.3 mph /  3.7 km/h 62 % 0 in /  0.0 mm
16:19 78.8 °F /  26.0 °C 64.2 °F /  17.9 °C 29.8 in /  1010.7 hPa NE 2.3 mph /  3.7 km/h 2.3 mph /  3.7 km/h 61 % 0 in /  0.0 mm
16:24 79.2 °F /  26.2 °C 63.7 °F /  17.6 °C 29.8 in /  1010.0 hPa NE 3.5 mph /  5.6 km/h 3.5 mph /  5.6 km/h 59 % 0 in /  0.0 mm
16:29 80.1 °F /  26.7 °C 63.5 °F /  17.5 °C 29.8 in /  1010.0 hPa ESE 4.9 mph /  7.9 km/h   57 % 0 in /  0.0 mm
16:34 80.4 °F /  26.9 °C 64.2 °F /  17.9 °C 29.8 in /  1010.0 hPa SW 4.6 mph /  7.4 km/h 4.6 mph /  7.4 km/h 58 % 0 in /  0.0 mm
16:39 80.6 °F /  27.0 °C 63 °F /  17.2 °C 29.8 in /  1010.0 hPa NNW 2.6 mph /  4.2 km/h 2.6 mph /  4.2 km/h 55 % 0 in /  0.0 mm
16:45 80.1 °F /  26.7 °C 63 °F /  17.2 °C 29.8 in /  1010.0 hPa NE 2.3 mph /  3.7 km/h 2.3 mph /  3.7 km/h 56 % 0 in /  0.0 mm
16:50 80.2 °F /  26.8 °C 63.1 °F /  17.3 °C 29.8 in /  1010.0 hPa NW 2.3 mph /  3.7 km/h   56 % 0 in /  0.0 mm
16:55 80.6 °F /  27.0 °C 63 °F /  17.2 °C 29.8 in /  1010.0 hPa NE 1 mph /  1.6 km/h 2 mph /  3.2 km/h 55 % 0 in /  0.0 mm
17:00 80.8 °F /  27.1 °C 63.1 °F /  17.3 °C 29.8 in /  1010.0 hPa West 2 mph /  3.2 km/h 3 mph /  4.8 km/h 55 % 0 in /  0.0 mm
17:05 81 °F /  27.2 °C 63.3 °F /  17.4 °C 29.8 in /  1010.0 hPa WSW 2 mph /  3.2 km/h 4 mph /  6.4 km/h 55 % 0 in /  0.0 mm
17:10 81.1 °F /  27.3 °C 63.3 °F /  17.4 °C 29.8 in /  1009.0 hPa SW 2 mph /  3.2 km/h 3 mph /  4.8 km/h 55 % 0 in /  0.0 mm
17:15 81.1 °F /  27.3 °C 63 °F /  17.2 °C 29.8 in /  1009.0 hPa Calm   3 mph /  4.8 km/h 54 % 0 in /  0.0 mm
17:20 80.4 °F /  26.9 °C 62.2 °F /  16.8 °C 29.8 in /  1009.0 hPa ESE 4.6 mph /  7.4 km/h 4.6 mph /  7.4 km/h 54 % 0 in /  0.0 mm
17:25 80.4 °F /  26.9 °C 62.8 °F /  17.1 °C 29.8 in /  1009.0 hPa NNE 2 mph /  3.2 km/h 3 mph /  4.8 km/h 55 % 0 in /  0.0 mm
17:30 80.1 °F /  26.7 °C 61.9 °F /  16.6 °C 29.8 in /  1009.0 hPa ENE 2 mph /  3.2 km/h 5 mph /  8.0 km/h 54 % 0 in /  0.0 mm
17:35 80.1 °F /  26.7 °C 61.9 °F /  16.6 °C 29.8 in /  1009.0 hPa NE 2 mph /  3.2 km/h 4 mph /  6.4 km/h 54 % 0 in /  0.0 mm
17:40 79.9 °F /  26.6 °C 61.9 °F /  16.6 °C 29.8 in /  1009.0 hPa NNE 1 mph /  1.6 km/h 4 mph /  6.4 km/h 54 % 0 in /  0.0 mm
17:45 80.1 °F /  26.7 °C 61.9 °F /  16.6 °C 29.8 in /  1009.0 hPa NNE 2 mph /  3.2 km/h 5 mph /  8.0 km/h 54 % 0 in /  0.0 mm
17:50 80.1 °F /  26.7 °C 62.1 °F /  16.7 °C 29.8 in /  1009.0 hPa NE 1 mph /  1.6 km/h 5 mph /  8.0 km/h 54 % 0 in /  0.0 mm
17:55 80.2 °F /  26.8 °C 62.1 °F /  16.7 °C 29.8 in /  1008.0 hPa NNE 1 mph /  1.6 km/h 4 mph /  6.4 km/h 54 % 0 in /  0.0 mm
18:00 80.2 °F /  26.8 °C 62.6 °F /  17.0 °C 29.8 in /  1008.0 hPa North 2 mph /  3.2 km/h 5 mph /  8.0 km/h 55 % 0 in /  0.0 mm
18:05 80.4 °F /  26.9 °C 62.2 °F /  16.8 °C 29.8 in /  1008.0 hPa NE 1 mph /  1.6 km/h 3 mph /  4.8 km/h 54 % 0 in /  0.0 mm
18:10 80.6 °F /  27.0 °C 63 °F /  17.2 °C 29.8 in /  1009.0 hPa NNW 2 mph /  3.2 km/h 4 mph /  6.4 km/h 55 % 0 in /  0.0 mm
18:15 80.8 °F /  27.1 °C 62.1 °F /  16.7 °C 29.8 in /  1009.0 hPa North 1 mph /  1.6 km/h 4 mph /  6.4 km/h 53 % 0 in /  0.0 mm
18:20 82.4 °F /  28.0 °C 63.5 °F /  17.5 °C 29.8 in /  1009.0 hPa WNW 2.3 mph /  3.7 km/h 2.3 mph /  3.7 km/h 53 % 0 in /  0.0 mm
18:26 82.8 °F /  28.2 °C 63.9 °F /  17.7 °C 29.8 in /  1009.0 hPa South 4.6 mph /  7.4 km/h 4.6 mph /  7.4 km/h 53 % 0 in /  0.0 mm
18:31 82.2 °F /  27.9 °C 62.8 °F /  17.1 °C 29.8 in /  1009.0 hPa South 2.4 mph /  3.9 km/h 2.4 mph /  3.9 km/h 52 % 0 in /  0.0 mm
18:36 81.7 °F /  27.6 °C 63 °F /  17.2 °C 29.8 in /  1008.0 hPa West 2.3 mph /  3.7 km/h 2.3 mph /  3.7 km/h 53 % 0 in /  0.0 mm
18:41 82.2 °F /  27.9 °C 63.3 °F /  17.4 °C 29.8 in /  1008.0 hPa South 2.2 mph /  3.5 km/h 2.2 mph /  3.5 km/h 53 % 0 in /  0.0 mm
18:42 82.4 °F /  28.0 °C 63.5 °F /  17.5 °C 29.8 in /  1008.0 hPa West 2.3 mph /  3.7 km/h 2.3 mph /  3.7 km/h 53 % 0 in /  0.0 mm
18:47 82.8 °F /  28.2 °C 63.3 °F /  17.4 °C 29.8 in /  1008.0 hPa WSW 2.4 mph /  3.9 km/h 2.4 mph /  3.9 km/h 52 % 0 in /  0.0 mm
18:53 82.9 °F /  28.3 °C 63.5 °F /  17.5 °C 29.8 in /  1008.0 hPa SE 3.5 mph /  5.6 km/h 3.5 mph /  5.6 km/h 52 % 0 in /  0.0 mm
18:58 82.8 °F /  28.2 °C 62.8 °F /  17.1 °C 29.8 in /  1008.0 hPa ENE 2.3 mph /  3.7 km/h 2.3 mph /  3.7 km/h 51 % 0 in /  0.0 mm
19:03 83.1 °F /  28.4 °C 63.7 °F /  17.6 °C 29.8 in /  1008.0 hPa NNW 2.3 mph /  3.7 km/h 2.3 mph /  3.7 km/h 52 % 0 in /  0.0 mm
19:08 82.6 °F /  28.1 °C 63.1 °F /  17.3 °C 29.8 in /  1008.0 hPa NW 2.3 mph /  3.7 km/h 2.3 mph /  3.7 km/h 52 % 0 in /  0.0 mm
19:10 72.3 °F /  22.4 °C 63.7 °F /  17.6 °C 29.8 in /  1010.0 hPa WSW 1 mph /  1.6 km/h 2 mph /  3.2 km/h 74 % 0 in /  0.0 mm
19:13 82.4 °F /  28.0 °C 63 °F /  17.2 °C 29.8 in /  1008.0 hPa SW 1.6 mph /  2.6 km/h 1.6 mph /  2.6 km/h 52 % 0 in /  0.0 mm
19:18 82.8 °F /  28.2 °C 63.3 °F /  17.4 °C 29.8 in /  1008.0 hPa WSW 2.3 mph /  3.7 km/h   52 % 0 in /  0.0 mm
19:20 72.1 °F /  22.3 °C 63.3 °F /  17.4 °C 29.8 in /  1010.0 hPa West 1 mph /  1.6 km/h 2 mph /  3.2 km/h 74 % 0 in /  0.0 mm
19:23 82.6 °F /  28.1 °C 63.1 °F /  17.3 °C 29.7 in /  1007.0 hPa SW 4.6 mph /  7.4 km/h 4.6 mph /  7.4 km/h 52 % 0 in /  0.0 mm
19:29 82.4 °F /  28.0 °C 63 °F /  17.2 °C 29.7 in /  1007.0 hPa South 3.5 mph /  5.6 km/h 3.5 mph /  5.6 km/h 52 % 0 in /  0.0 mm
19:30 72.1 °F /  22.3 °C 63.9 °F /  17.7 °C 29.8 in /  1010.0 hPa Calm   3 mph /  4.8 km/h 75 % 0 in /  0.0 mm
19:34 82.2 °F /  27.9 °C 62.8 °F /  17.1 °C 29.7 in /  1007.0 hPa WSW 2.3 mph /  3.7 km/h 2.3 mph /  3.7 km/h 52 % 0 in /  0.0 mm
19:39 81.7 °F /  27.6 °C 62.2 °F /  16.8 °C 29.8 in /  1008.0 hPa NNE 1.2 mph /  1.9 km/h   52 % 0 in /  0.0 mm
19:40 72 °F /  22.2 °C 63.7 °F /  17.6 °C 29.8 in /  1010.0 hPa West 1 mph /  1.6 km/h 2 mph /  3.2 km/h 75 % 0 in /  0.0 mm
19:44 81.7 °F /  27.6 °C 62.2 °F /  16.8 °C 29.8 in /  1008.0 hPa WSW 3.5 mph /  5.6 km/h 3.5 mph /  5.6 km/h 52 % 0 in /  0.0 mm
19:50 81.9 °F /  27.7 °C 63.1 °F /  17.3 °C 29.8 in /  1008.0 hPa SW 3.5 mph /  5.6 km/h 3.5 mph /  5.6 km/h 53 % 0 in /  0.0 mm
19:55 81.7 °F /  27.6 °C 62.4 °F /  16.9 °C 29.8 in /  1008.0 hPa SW 3 mph /  4.8 km/h 5 mph /  8.0 km/h 52 % 0 in /  0.0 mm
20:00 81.3 °F /  27.4 °C 62.8 °F /  17.1 °C 29.8 in /  1008.0 hPa SW 1 mph /  1.6 km/h 5 mph /  8.0 km/h 53 % 0 in /  0.0 mm
20:05 81.5 °F /  27.5 °C 62.8 °F /  17.1 °C 29.8 in /  1008.0 hPa SW 2 mph /  3.2 km/h 4 mph /  6.4 km/h 53 % 0 in /  0.0 mm
20:10 81.3 °F /  27.4 °C 62.6 °F /  17.0 °C 29.8 in /  1008.0 hPa SW 3 mph /  4.8 km/h 4 mph /  6.4 km/h 53 % 0 in /  0.0 mm
20:15 81 °F /  27.2 °C 62.8 °F /  17.1 °C 29.8 in /  1008.0 hPa SW 2 mph /  3.2 km/h 3 mph /  4.8 km/h 54 % 0 in /  0.0 mm
20:20 80.8 °F /  27.1 °C 62.6 °F /  17.0 °C 29.8 in /  1008.0 hPa SW 3.5 mph /  5.6 km/h 3.5 mph /  5.6 km/h 54 % 0 in /  0.0 mm
20:25 80.6 °F /  27.0 °C 62.4 °F /  16.9 °C 29.8 in /  1008.0 hPa WSW 3.5 mph /  5.6 km/h 3.5 mph /  5.6 km/h 54 % 0 in /  0.0 mm
20:30 80.4 °F /  26.9 °C 63.3 °F /  17.4 °C 29.8 in /  1008.0 hPa WSW 2.3 mph /  3.7 km/h 2.4 mph /  3.9 km/h 56 % 0 in /  0.0 mm
20:35 80.1 °F /  26.7 °C 63 °F /  17.2 °C 29.8 in /  1008.0 hPa WSW 3.5 mph /  5.6 km/h 3.5 mph /  5.6 km/h 56 % 0 in /  0.0 mm
20:40 79.7 °F /  26.5 °C 63.1 °F /  17.3 °C 29.8 in /  1008.0 hPa SW 4.6 mph /  7.4 km/h 4.6 mph /  7.4 km/h 57 % 0 in /  0.0 mm
20:45 79.3 °F /  26.3 °C 62.8 °F /  17.1 °C 29.8 in /  1008.0 hPa SSW 3.5 mph /  5.6 km/h 3.5 mph /  5.6 km/h 57 % 0 in /  0.0 mm
20:50 70.9 °F /  21.6 °C 63.7 °F /  17.6 °C 29.8 in /  1010.7 hPa West 1 mph /  1.6 km/h 1 mph /  1.6 km/h 78 % 0 in /  0.0 mm
20:52 79 °F /  26.1 °C 63 °F /  17.2 °C 29.8 in /  1009.0 hPa SW 2.3 mph /  3.7 km/h 2.3 mph /  3.7 km/h 58 % 0 in /  0.0 mm
20:57 78.8 °F /  26.0 °C 62.8 °F /  17.1 °C 29.8 in /  1009.0 hPa West 3.5 mph /  5.6 km/h 3.5 mph /  5.6 km/h 58 % 0 in /  0.0 mm
21:00 70.7 °F /  21.5 °C 63.9 °F /  17.7 °C 29.8 in /  1010.7 hPa Calm     79 % 0 in /  0.0 mm
21:02 78.6 °F /  25.9 °C 63.1 °F /  17.3 °C 29.8 in /  1009.0 hPa SW 2.3 mph /  3.7 km/h 2.3 mph /  3.7 km/h 59 % 0 in /  0.0 mm
21:07 78.4 °F /  25.8 °C 63 °F /  17.2 °C 29.8 in /  1009.0 hPa SW 2.3 mph /  3.7 km/h 2.4 mph /  3.9 km/h 59 % 0 in /  0.0 mm
21:10 70.5 °F /  21.4 °C 64 °F /  17.8 °C 29.8 in /  1010.7 hPa Calm     80 % 0 in /  0.0 mm
21:12 78.1 °F /  25.6 °C 63.1 °F /  17.3 °C 29.8 in /  1009.0 hPa SW 3.5 mph /  5.6 km/h 3.5 mph /  5.6 km/h 60 % 0 in /  0.0 mm
21:17 77.7 °F /  25.4 °C 62.8 °F /  17.1 °C 29.8 in /  1009.0 hPa SW 2.4 mph /  3.9 km/h 2.4 mph /  3.9 km/h 60 % 0 in /  0.0 mm
21:20 70.3 °F /  21.3 °C 63.9 °F /  17.7 °C 29.8 in /  1010.7 hPa WNW 1 mph /  1.6 km/h   80 % 0 in /  0.0 mm
21:22 77.5 °F /  25.3 °C 62.6 °F /  17.0 °C 29.8 in /  1009.0 hPa SW 3.5 mph /  5.6 km/h 3.5 mph /  5.6 km/h 60 % 0 in /  0.0 mm
21:27 77.4 °F /  25.2 °C 63 °F /  17.2 °C 29.8 in /  1009.0 hPa SW 2.3 mph /  3.7 km/h 2.3 mph /  3.7 km/h 61 % 0 in /  0.0 mm
21:30 70.2 °F /  21.2 °C 63.7 °F /  17.6 °C 29.8 in /  1010.7 hPa NW 1 mph /  1.6 km/h 1 mph /  1.6 km/h 80 % 0 in /  0.0 mm
21:32 77.2 °F /  25.1 °C 62.8 °F /  17.1 °C 29.8 in /  1009.0 hPa SW 3.5 mph /  5.6 km/h 3.5 mph /  5.6 km/h 61 % 0 in /  0.0 mm
21:37 76.8 °F /  24.9 °C 63.3 °F /  17.4 °C 29.8 in /  1009.0 hPa SW 2.6 mph /  4.2 km/h 2.6 mph /  4.2 km/h 63 % 0 in /  0.0 mm
21:40 70 °F /  21.1 °C 63.5 °F /  17.5 °C 29.9 in /  1011.7 hPa NW 1 mph /  1.6 km/h 1 mph /  1.6 km/h 80 % 0 in /  0.0 mm
21:42 76.6 °F /  24.8 °C 63.1 °F /  17.3 °C 29.8 in /  1009.0 hPa SW 3.5 mph /  5.6 km/h 3.5 mph /  5.6 km/h 63 % 0 in /  0.0 mm
21:47 76.5 °F /  24.7 °C 63.3 °F /  17.4 °C 29.8 in /  1009.0 hPa SSW 4.6 mph /  7.4 km/h 4.6 mph /  7.4 km/h 64 % 0 in /  0.0 mm
21:50 69.8 °F /  21.0 °C 63.3 °F /  17.4 °C 29.9 in /  1011.7 hPa Calm   2 mph /  3.2 km/h 80 % 0 in /  0.0 mm
21:52 76.3 °F /  24.6 °C 63.1 °F /  17.3 °C 29.8 in /  1010.0 hPa SW 4.6 mph /  7.4 km/h 4.6 mph /  7.4 km/h 64 % 0 in /  0.0 mm
21:57 76.1 °F /  24.5 °C 63.5 °F /  17.5 °C 29.8 in /  1010.0 hPa SW 3.5 mph /  5.6 km/h 3.5 mph /  5.6 km/h 65 % 0 in /  0.0 mm
22:00 69.6 °F /  20.9 °C 63.5 °F /  17.5 °C 29.9 in /  1011.7 hPa Calm   1 mph /  1.6 km/h 81 % 0 in /  0.0 mm
22:02 75.9 °F /  24.4 °C 63.3 °F /  17.4 °C 29.8 in /  1010.0 hPa SSW 5.8 mph /  9.3 km/h 5.8 mph /  9.3 km/h 65 % 0 in /  0.0 mm
22:07 75.6 °F /  24.2 °C 63.3 °F /  17.4 °C 29.8 in /  1010.0 hPa SSW 5.6 mph /  9.0 km/h 5.6 mph /  9.0 km/h 66 % 0 in /  0.0 mm
22:10 69.3 °F /  20.7 °C 63.1 °F /  17.3 °C 29.8 in /  1010.7 hPa West 1 mph /  1.6 km/h 1 mph /  1.6 km/h 81 % 0 in /  0.0 mm
22:12 75.2 °F /  24.0 °C 63.1 °F /  17.3 °C 29.8 in /  1010.0 hPa WSW 4.6 mph /  7.4 km/h 4.6 mph /  7.4 km/h 66 % 0 in /  0.0 mm
22:17 75 °F /  23.9 °C 63.7 °F /  17.6 °C 29.8 in /  1010.0 hPa SSW 3.6 mph /  5.8 km/h 3.6 mph /  5.8 km/h 68 % 0 in /  0.0 mm
22:20 69.1 °F /  20.6 °C 63.3 °F /  17.4 °C 29.8 in /  1010.7 hPa Calm   2 mph /  3.2 km/h 82 % 0 in /  0.0 mm
22:22 74.8 °F /  23.8 °C 63.7 °F /  17.6 °C 29.8 in /  1010.0 hPa South 4.6 mph /  7.4 km/h 4.6 mph /  7.4 km/h 68 % 0 in /  0.0 mm
22:27 74.7 °F /  23.7 °C 63.3 °F /  17.4 °C 29.8 in /  1010.0 hPa West 3.5 mph /  5.6 km/h 3.5 mph /  5.6 km/h 68 % 0 in /  0.0 mm
22:30 69.1 °F /  20.6 °C 63.7 °F /  17.6 °C 29.9 in /  1011.7 hPa Calm     83 % 0 in /  0.0 mm
22:32 74.5 °F /  23.6 °C 63.7 °F /  17.6 °C 29.8 in /  1010.0 hPa SW 2.4 mph /  3.9 km/h 2.4 mph /  3.9 km/h 69 % 0 in /  0.0 mm
22:37 74.3 °F /  23.5 °C 63.5 °F /  17.5 °C 29.8 in /  1009.0 hPa WSW 2.3 mph /  3.7 km/h 2.3 mph /  3.7 km/h 69 % 0 in /  0.0 mm
22:40 69.1 °F /  20.6 °C 63.7 °F /  17.6 °C 29.8 in /  1010.7 hPa West 1 mph /  1.6 km/h 1 mph /  1.6 km/h 83 % 0 in /  0.0 mm
22:42 74.3 °F /  23.5 °C 63.5 °F /  17.5 °C 29.8 in /  1009.0 hPa WNW 2.6 mph /  4.2 km/h 2.6 mph /  4.2 km/h 69 % 0 in /  0.0 mm
22:47 74.1 °F /  23.4 °C 63.7 °F /  17.6 °C 29.8 in /  1009.0 hPa WSW 2.3 mph /  3.7 km/h 2.3 mph /  3.7 km/h 70 % 0 in /  0.0 mm
22:50 68.5 °F /  20.3 °C 63.1 °F /  17.3 °C 29.8 in /  1010.7 hPa Calm   2 mph /  3.2 km/h 83 % 0 in /  0.0 mm
22:53 73.9 °F /  23.3 °C 63.5 °F /  17.5 °C 29.8 in /  1010.0 hPa WSW 2.4 mph /  3.9 km/h 2.4 mph /  3.9 km/h 70 % 0 in /  0.0 mm
22:58 73.8 °F /  23.2 °C 63.3 °F /  17.4 °C 29.8 in /  1010.0 hPa WSW 2.3 mph /  3.7 km/h 2.3 mph /  3.7 km/h 70 % 0 in /  0.0 mm
23:00 68.4 °F /  20.2 °C 63 °F /  17.2 °C 29.8 in /  1010.7 hPa Calm   1 mph /  1.6 km/h 83 % 0 in /  0.0 mm
23:03 73.6 °F /  23.1 °C 63.1 °F /  17.3 °C 29.8 in /  1010.0 hPa WSW 2.4 mph /  3.9 km/h 2.4 mph /  3.9 km/h 70 % 0 in /  0.0 mm
23:08 73.4 °F /  23.0 °C 63 °F /  17.2 °C 29.8 in /  1010.0 hPa SW 3.5 mph /  5.6 km/h 3.5 mph /  5.6 km/h 70 % 0 in /  0.0 mm
23:10 68.2 °F /  20.1 °C 63.1 °F /  17.3 °C 29.8 in /  1010.7 hPa Calm     84 % 0 in /  0.0 mm
23:13 73.4 °F /  23.0 °C 63.3 °F /  17.4 °C 29.8 in /  1010.0 hPa SW 2.4 mph /  3.9 km/h 2.9 mph /  4.7 km/h 71 % 0 in /  0.0 mm
23:18 73 °F /  22.8 °C 63.5 °F /  17.5 °C 29.8 in /  1010.0 hPa SW 2.3 mph /  3.7 km/h   72 % 0 in /  0.0 mm
23:20 68 °F /  20.0 °C 63 °F /  17.2 °C 29.8 in /  1010.7 hPa WNW 1 mph /  1.6 km/h 1 mph /  1.6 km/h 84 % 0 in /  0.0 mm
23:23 73 °F /  22.8 °C 63.1 °F /  17.3 °C 29.8 in /  1009.0 hPa SW 2.3 mph /  3.7 km/h 2.3 mph /  3.7 km/h 71 % 0 in /  0.0 mm
23:28 72.9 °F /  22.7 °C 63.3 °F /  17.4 °C 29.8 in /  1009.0 hPa WSW 2.6 mph /  4.2 km/h 2.6 mph /  4.2 km/h 72 % 0 in /  0.0 mm
23:30 67.6 °F /  19.8 °C 63 °F /  17.2 °C 29.8 in /  1010.7 hPa West 1 mph /  1.6 km/h 2 mph /  3.2 km/h 85 % 0 in /  0.0 mm
23:33 72.9 °F /  22.7 °C 63.3 °F /  17.4 °C 29.8 in /  1009.0 hPa Calm     72 % 0 in /  0.0 mm
23:38 72.7 °F /  22.6 °C 63.5 °F /  17.5 °C 29.8 in /  1010.0 hPa WSW 1.2 mph /  1.9 km/h   73 % 0 in /  0.0 mm
23:40 67.5 °F /  19.7 °C 63.1 °F /  17.3 °C 29.8 in /  1010.7 hPa Calm     86 % 0 in /  0.0 mm
23:43 72.5 °F /  22.5 °C 63.3 °F /  17.4 °C 29.8 in /  1010.0 hPa NW 2.2 mph /  3.5 km/h 2.2 mph /  3.5 km/h 73 % 0 in /  0.0 mm
23:48 72.5 °F /  22.5 °C 63.3 °F /  17.4 °C 29.8 in /  1010.0 hPa WNW 1.2 mph /  1.9 km/h 1.2 mph /  1.9 km/h 73 % 0 in /  0.0 mm
23:50 67.5 °F /  19.7 °C 63.1 °F /  17.3 °C 29.8 in /  1010.7 hPa Calm     86 % 0 in /  0.0 mm
23:53 72.5 °F /  22.5 °C 63.3 °F /  17.4 °C 29.8 in /  1010.0 hPa WSW 2.3 mph /  3.7 km/h 2.3 mph /  3.7 km/h 73 % 0 in /  0.0 mm
23:58 72.3 °F /  22.4 °C 63.7 °F /  17.6 °C 29.8 in /  1010.0 hPa SW 2.3 mph /  3.7 km/h 2.3 mph /  3.7 km/h 74 % 0 in /  0.0 mm
Meteo Sesrovires
Elogis d' Weather Underground - 3.75 mb

Guio original per  Jim McMurry - jmcmurry@mwt.net Adaptat per a la plantilla per  Wim van der Kuil - Leuven-Template.eu

Trobareu la nostra informacio del temps tambe a:

Weather Underground

AWEKAS